Time;durP1;ratioP1;P1;durP2;ratioP2;P2;SDS_P1;SDS_P2;PMS_P1;PMS_P2;Temp;Humidity;BMP_temperature;BMP_pressure;BME280_temperature;BME280_humidity;BME280_pressure;Samples;Min_cycle;Max_cycle;Signal;HPM_P1;HPM_P2
2021/07/02 00:01:47;;;;;;;52.08;27.52;;;15.30;99.90;;;;;;5052354;28;20389;-77
2021/07/02 00:04:12;;;;;;;48.60;27.05;;;15.30;99.90;;;;;;5053960;28;20946;-77
2021/07/02 00:06:38;;;;;;;49.57;26.20;;;15.30;99.90;;;;;;5053849;28;20746;-78
2021/07/02 00:09:03;;;;;;;50.40;26.33;;;15.20;99.90;;;;;;5060171;28;20790;-78
2021/07/02 00:11:29;;;;;;;50.60;26.58;;;15.20;99.90;;;;;;5057642;28;20385;-78
2021/07/02 00:13:55;;;;;;;48.75;26.85;;;15.20;99.90;;;;;;5052606;28;20920;-77
2021/07/02 00:16:20;;;;;;;46.15;26.42;;;15.20;99.90;;;;;;5052458;28;20728;-78
2021/07/02 00:18:46;;;;;;;52.30;27.50;;;15.20;99.90;;;;;;5068283;28;20421;-78
2021/07/02 00:21:11;;;;;;;44.53;25.70;;;15.20;99.90;;;;;;5051613;28;20444;-78
2021/07/02 00:23:37;;;;;;;46.00;26.97;;;15.20;99.90;;;;;;5051601;28;20817;-78
2021/07/02 00:26:02;;;;;;;54.47;26.58;;;15.10;99.90;;;;;;5050682;28;20893;-77
2021/07/02 00:28:28;;;;;;;49.80;26.70;;;15.10;99.90;;;;;;5054764;28;20789;-77
2021/07/02 00:30:54;;;;;;;56.57;26.40;;;15.10;99.90;;;;;;5057943;28;20417;-76
2021/07/02 00:33:19;;;;;;;51.53;26.47;;;15.10;99.90;;;;;;5057176;28;20405;-77
2021/07/02 00:35:45;;;;;;;50.83;26.70;;;15.00;99.90;;;;;;5054059;28;20576;-78
2021/07/02 00:38:11;;;;;;;58.13;27.83;;;15.10;99.90;;;;;;5052697;28;20417;-78
2021/07/02 00:40:36;;;;;;;50.15;25.42;;;15.10;99.90;;;;;;5052970;28;20472;-77
2021/07/02 00:43:03;;;;;;;48.60;26.58;;;15.00;99.90;;;;;;5052704;28;20420;-78
2021/07/02 00:45:28;;;;;;;57.88;27.33;;;15.00;99.90;;;;;;5051822;28;20381;-77
2021/07/02 00:47:54;;;;;;;56.20;25.63;;;14.90;99.90;;;;;;5049763;28;20386;-77
2021/07/02 00:50:20;;;;;;;53.13;26.23;;;14.90;99.90;;;;;;5052105;28;20477;-78
2021/07/02 00:52:45;;;;;;;48.78;25.92;;;14.90;99.90;;;;;;5051769;28;20385;-79
2021/07/02 00:55:12;;;;;;;51.13;25.35;;;14.90;99.90;;;;;;5052509;28;20397;-78
2021/07/02 00:57:38;;;;;;;51.55;26.08;;;14.90;99.90;;;;;;5050642;28;20489;-79
2021/07/02 01:00:08;;;;;;;51.85;26.10;;;14.90;99.90;;;;;;5051989;28;20480;-78
2021/07/02 01:02:35;;;;;;;47.63;25.83;;;14.90;99.90;;;;;;5050967;28;20473;-78
2021/07/02 01:05:02;;;;;;;49.00;25.80;;;14.90;99.90;;;;;;5051031;28;20393;-78
2021/07/02 01:07:27;;;;;;;53.67;26.10;;;14.80;99.90;;;;;;5051748;28;20385;-78
2021/07/02 01:09:53;;;;;;;50.00;24.80;;;14.80;99.90;;;;;;5052102;28;20460;-78
2021/07/02 01:12:19;;;;;;;47.08;24.40;;;14.90;99.90;;;;;;5051833;28;20710;-77
2021/07/02 01:14:44;;;;;;;53.25;26.50;;;14.80;99.90;;;;;;5051956;28;20397;-78
2021/07/02 01:17:10;;;;;;;52.88;25.80;;;14.70;99.90;;;;;;5053800;28;20436;-78
2021/07/02 01:19:35;;;;;;;53.10;25.30;;;14.70;99.90;;;;;;5053224;28;20458;-77
2021/07/02 01:22:01;;;;;;;50.87;25.07;;;14.70;99.90;;;;;;5052853;28;20377;-79
2021/07/02 01:24:27;;;;;;;54.07;24.83;;;14.70;99.90;;;;;;5060447;28;20874;-78
2021/07/02 01:26:53;;;;;;;57.10;25.77;;;14.60;99.90;;;;;;5063514;28;20393;-78
2021/07/02 01:29:21;;;;;;;51.25;25.05;;;14.60;99.90;;;;;;5063479;28;20458;-78
2021/07/02 01:31:46;;;;;;;57.00;25.40;;;14.60;99.90;;;;;;5061231;28;20456;-78
2021/07/02 01:34:12;;;;;;;47.53;24.27;;;14.50;99.90;;;;;;5063028;28;20916;-77
2021/07/02 01:36:38;;;;;;;54.37;24.37;;;14.50;99.90;;;;;;5056255;28;20424;-78
2021/07/02 01:39:05;;;;;;;47.83;24.80;;;14.40;99.90;;;;;;5055834;28;20405;-76
2021/07/02 01:41:30;;;;;;;44.85;24.42;;;14.50;99.90;;;;;;5055186;28;20472;-77
2021/07/02 01:43:56;;;;;;;53.43;27.20;;;14.40;99.90;;;;;;5054528;28;20456;-77
2021/07/02 01:46:21;;;;;;;43.07;23.97;;;14.40;99.90;;;;;;5053256;28;20397;-78
2021/07/02 01:48:47;;;;;;;51.10;25.08;;;14.40;99.90;;;;;;5054724;28;20377;-77
2021/07/02 01:51:13;;;;;;;53.25;24.73;;;14.60;99.90;;;;;;5054890;28;20419;-77
2021/07/02 01:53:38;;;;;;;49.17;24.10;;;14.40;99.90;;;;;;5071834;28;20790;-77
2021/07/02 01:56:04;;;;;;;42.65;22.70;;;14.40;99.90;;;;;;5054670;28;20382;-77
2021/07/02 01:58:30;;;;;;;49.20;23.60;;;14.40;99.90;;;;;;5057622;28;20372;-77
2021/07/02 02:00:56;;;;;;;48.50;24.58;;;14.40;99.90;;;;;;5058224;28;20416;-77
2021/07/02 02:03:22;;;;;;;47.92;23.88;;;14.30;99.90;;;;;;5061855;28;20397;-79
2021/07/02 02:05:48;;;;;;;50.40;23.80;;;14.20;99.90;;;;;;5062156;28;20389;-79
2021/07/02 02:08:14;;;;;;;54.60;24.77;;;14.20;99.90;;;;;;5062634;28;20386;-78
2021/07/02 02:10:40;;;;;;;54.58;24.77;;;14.10;99.90;;;;;;5063113;28;20393;-79
2021/07/02 02:13:06;;;;;;;61.43;25.33;;;14.10;99.90;;;;;;5062754;28;20409;-79
2021/07/02 02:15:31;;;;;;;46.53;24.13;;;14.20;99.90;;;;;;5062554;28;20393;-79
2021/07/02 02:17:58;;;;;;;49.37;24.37;;;14.30;99.90;;;;;;5058790;28;20502;-77
2021/07/02 02:20:24;;;;;;;48.13;22.80;;;14.30;99.90;;;;;;5055920;28;20381;-77
2021/07/02 02:22:50;;;;;;;53.23;23.80;;;14.20;99.90;;;;;;5054626;28;20756;-77
2021/07/02 02:25:15;;;;;;;48.80;23.73;;;14.30;99.90;;;;;;5053596;28;20389;-76
2021/07/02 02:27:41;;;;;;;49.57;23.90;;;14.30;99.90;;;;;;5052174;28;20401;-77
2021/07/02 02:30:09;;;;;;;37.08;21.65;;;14.30;99.90;;;;;;5053304;28;20437;-77
2021/07/02 02:32:36;;;;;;;51.83;23.60;;;14.40;99.90;;;;;;5053623;28;20757;-78
2021/07/02 02:35:02;;;;;;;47.50;24.27;;;14.50;99.90;;;;;;5053134;28;20436;-77
2021/07/02 02:37:27;;;;;;;47.10;23.42;;;14.50;99.90;;;;;;5054259;28;20710;-77
2021/07/02 02:39:53;;;;;;;43.77;22.90;;;14.60;99.90;;;;;;5054122;28;20389;-77
2021/07/02 02:42:19;;;;;;;44.47;23.02;;;14.50;99.90;;;;;;5055199;28;20423;-77
2021/07/02 02:44:45;;;;;;;47.93;22.13;;;14.60;99.90;;;;;;5055222;28;20398;-78
2021/07/02 02:47:10;;;;;;;49.50;23.33;;;14.60;99.90;;;;;;5053913;28;20539;-77
2021/07/02 02:49:36;;;;;;;42.57;22.30;;;14.60;99.90;;;;;;5053478;28;20381;-77
2021/07/02 02:52:02;;;;;;;44.10;21.77;;;14.60;99.90;;;;;;5069014;28;20476;-78
2021/07/02 02:54:28;;;;;;;39.95;21.05;;;14.70;99.90;;;;;;5051791;28;20402;-77
2021/07/02 02:57:08;;;;;;;43.77;21.20;;;14.60;99.90;;;;;;5053425;28;20384;-78
2021/07/02 02:59:36;;;;;;;44.78;23.75;;;14.80;99.90;;;;;;5055608;28;20911;-78
2021/07/02 03:02:06;;;;;;;46.17;23.15;;;14.70;99.90;;;;;;5059847;28;20392;-76
2021/07/02 03:04:34;;;;;;;43.53;22.88;;;14.70;99.90;;;;;;5064142;28;20377;-78
2021/07/02 03:07:00;;;;;;;43.15;22.05;;;14.70;99.90;;;;;;5064223;28;20443;-79
2021/07/02 03:09:25;;;;;;;43.45;21.88;;;14.70;99.90;;;;;;5060507;28;20882;-77
2021/07/02 03:11:52;;;;;;;41.22;21.42;;;14.80;99.90;;;;;;5060840;28;20393;-77
2021/07/02 03:14:19;;;;;;;44.70;23.70;;;14.70;99.90;;;;;;5060673;28;20908;-78
2021/07/02 03:16:44;;;;;;;42.55;22.25;;;14.70;99.90;;;;;;5058368;28;20382;-77
2021/07/02 03:19:10;;;;;;;53.72;24.15;;;14.70;99.90;;;;;;5058299;28;20381;-78
2021/07/02 03:21:35;;;;;;;46.28;24.10;;;14.70;99.90;;;;;;5058457;28;20384;-78
2021/07/02 03:24:01;;;;;;;43.75;23.52;;;14.60;99.90;;;;;;5056717;28;20386;-77
2021/07/02 03:26:27;;;;;;;46.90;23.88;;;14.60;99.90;;;;;;5054165;28;20484;-77
2021/07/02 03:28:52;;;;;;;45.70;24.40;;;14.50;99.90;;;;;;5069261;23;20531;-79
2021/07/02 03:31:18;;;;;;;44.60;24.40;;;14.40;99.90;;;;;;5072285;28;20397;-77
2021/07/02 03:33:43;;;;;;;44.93;23.70;;;14.30;99.90;;;;;;5064323;28;20905;-79
2021/07/02 03:36:09;;;;;;;55.03;24.33;;;14.30;99.90;;;;;;5084691;28;20413;-78
2021/07/02 03:38:35;;;;;;;49.10;24.08;;;14.10;99.90;;;;;;5062388;28;20750;-76
2021/07/02 03:41:00;;;;;;;49.40;23.50;;;14.00;99.90;;;;;;5086560;28;20397;-78
2021/07/02 03:43:26;;;;;;;48.00;23.50;;;13.90;99.90;;;;;;5057556;28;20885;-78
2021/07/02 03:45:52;;;;;;;50.50;24.27;;;13.90;99.90;;;;;;5054942;28;20386;-76
2021/07/02 03:48:17;;;;;;;50.87;24.00;;;13.80;99.90;;;;;;5057063;28;20390;-77
2021/07/02 03:50:43;;;;;;;53.27;24.83;;;13.70;99.90;;;;;;5054019;28;20912;-76
2021/07/02 03:53:08;;;;;;;49.80;25.33;;;13.70;99.90;;;;;;5058449;28;20426;-78
2021/07/02 03:55:34;;;;;;;56.70;25.23;;;13.70;99.90;;;;;;5058527;28;20390;-77
2021/07/02 03:58:00;;;;;;;49.10;24.13;;;13.60;99.90;;;;;;5056268;28;20385;-77
2021/07/02 04:00:26;;;;;;;45.38;23.15;;;13.60;99.90;;;;;;5055714;28;20378;-78
2021/07/02 04:02:51;;;;;;;48.58;23.77;;;13.60;99.90;;;;;;5055806;28;20381;-78
2021/07/02 04:05:17;;;;;;;54.47;25.52;;;13.60;99.90;;;;;;5058881;28;20393;-77
2021/07/02 04:07:42;;;;;;;46.95;24.08;;;13.60;99.90;;;;;;5062392;28;20457;-77
2021/07/02 04:10:08;;;;;;;53.77;24.30;;;13.60;99.90;;;;;;5061936;28;20411;-77
2021/07/02 04:12:34;;;;;;;55.90;24.63;;;13.80;99.90;;;;;;5061468;28;20898;-78
2021/07/02 04:15:00;;;;;;;48.17;25.00;;;13.80;99.90;;;;;;5055565;28;20650;-77
2021/07/02 04:17:25;;;;;;;60.08;26.75;;;13.80;99.90;;;;;;5055260;28;20478;-77
2021/07/02 04:19:51;;;;;;;173.73;103.87;;;13.90;99.90;;;;;;5055159;28;20393;-78
2021/07/02 04:22:17;;;;;;;285.40;199.33;;;14.00;99.90;;;;;;5053973;28;20804;-77
2021/07/02 04:24:43;;;;;;;75.13;40.80;;;14.10;99.90;;;;;;5054256;28;20381;-78
2021/07/02 04:27:08;;;;;;;129.17;74.33;;;14.20;99.90;;;;;;5055317;28;21000;-78
2021/07/02 04:29:34;;;;;;;58.40;27.70;;;14.30;99.90;;;;;;5054658;28;20400;-78
2021/07/02 04:32:00;;;;;;;83.23;47.00;;;14.40;99.90;;;;;;5053720;28;20436;-77
2021/07/02 04:34:26;;;;;;;79.38;42.92;;;14.40;99.90;;;;;;5053437;28;20409;-79
2021/07/02 04:36:52;;;;;;;67.03;39.75;;;14.40;99.90;;;;;;5055826;28;20394;-78
2021/07/02 04:39:19;;;;;;;60.67;31.80;;;14.50;99.90;;;;;;5057378;28;20377;-76
2021/07/02 04:41:45;;;;;;;63.50;32.25;;;14.50;99.90;;;;;;5066112;28;20377;-77
2021/07/02 04:44:11;;;;;;;44.85;23.50;;;14.40;99.90;;;;;;5069771;28;20389;-78
2021/07/02 04:46:36;;;;;;;55.97;29.60;;;14.40;99.90;;;;;;5066508;28;20385;-77
2021/07/02 04:49:02;;;;;;;59.57;29.13;;;14.50;99.90;;;;;;5059782;28;20389;-77
2021/07/02 04:51:27;;;;;;;45.58;24.48;;;14.60;99.90;;;;;;5059656;28;20773;-77
2021/07/02 04:53:53;;;;;;;54.63;29.08;;;14.60;99.90;;;;;;5057380;28;20401;-78
2021/07/02 04:56:19;;;;;;;46.20;24.25;;;14.70;99.90;;;;;;5056140;28;20381;-79
2021/07/02 04:58:50;;;;;;;53.83;26.80;;;14.70;99.90;;;;;;5056301;28;20424;-76
2021/07/02 05:01:17;;;;;;;67.80;37.10;;;14.70;99.90;;;;;;5058373;28;20419;-77
2021/07/02 05:03:42;;;;;;;97.40;54.83;;;14.70;99.90;;;;;;5058190;28;20396;-78
2021/07/02 05:06:08;;;;;;;47.92;26.42;;;14.90;99.90;;;;;;5066285;28;20380;-77
2021/07/02 05:08:34;;;;;;;57.08;32.17;;;15.00;99.90;;;;;;5066404;28;20400;-78
2021/07/02 05:10:59;;;;;;;65.15;32.60;;;15.30;99.90;;;;;;5066570;28;20401;-77
2021/07/02 05:13:25;;;;;;;45.60;25.60;;;15.60;99.90;;;;;;5058870;28;20420;-78
2021/07/02 05:15:52;;;;;;;42.83;22.93;;;16.00;99.90;;;;;;5059071;28;20411;-78
2021/07/02 05:18:18;;;;;;;54.05;29.27;;;16.20;95.20;;;;;;5057256;28;20392;-78
2021/07/02 05:20:45;;;;;;;109.50;60.43;;;16.50;94.30;;;;;;5058274;28;20393;-77
2021/07/02 05:23:12;;;;;;;87.78;52.83;;;16.70;89.30;;;;;;5054886;28;20423;-78
2021/07/02 05:25:38;;;;;;;49.90;27.20;;;16.90;88.10;;;;;;5052776;28;20870;-77
2021/07/02 05:28:04;;;;;;;46.97;23.85;;;17.20;82.70;;;;;;5053067;28;20874;-77
2021/07/02 05:30:29;;;;;;;50.00;27.48;;;17.40;78.70;;;;;;5052671;28;20471;-76
2021/07/02 05:32:55;;;;;;;90.78;55.15;;;17.50;79.20;;;;;;5050695;28;20478;-76
2021/07/02 05:35:21;;;;;;;89.63;50.17;;;17.60;77.50;;;;;;5056260;28;20503;-77
2021/07/02 05:37:47;;;;;;;75.23;39.80;;;17.70;74.60;;;;;;5062073;28;20734;-77
2021/07/02 05:40:14;;;;;;;46.37;25.50;;;17.70;72.10;;;;;;5051335;28;20420;-79
2021/07/02 05:42:40;;;;;;;53.10;26.20;;;17.80;70.20;;;;;;5055482;28;20389;-76
2021/07/02 05:45:07;;;;;;;39.45;21.58;;;17.90;67.10;;;;;;5063220;28;20947;-77
2021/07/02 05:47:50;;;;;;;36.97;21.40;;;17.80;64.40;;;;;;5060836;28;20472;-76
2021/07/02 05:50:19;;;;;;;39.90;19.53;;;17.90;63.60;;;;;;5058455;28;20766;-78
2021/07/02 05:52:46;;;;;;;51.85;32.42;;;18.10;60.10;;;;;;5052891;28;20436;-77
2021/07/02 05:55:13;;;;;;;37.53;21.10;;;18.10;55.80;;;;;;5054807;28;20401;-78
2021/07/02 05:57:42;;;;;;;70.97;40.25;;;18.20;51.90;;;;;;5055199;28;20381;-78
2021/07/02 06:00:09;;;;;;;37.60;17.65;;;18.30;53.10;;;;;;5066959;28;20727;-77
2021/07/02 06:02:35;;;;;;;24.45;14.45;;;18.20;47.90;;;;;;5063709;28;20393;-77
2021/07/02 06:05:00;;;;;;;34.97;16.33;;;18.10;47.00;;;;;;5059116;28;20386;-79
2021/07/02 06:07:26;;;;;;;29.05;14.18;;;17.90;47.70;;;;;;5063438;28;20401;-78
2021/07/02 06:09:52;;;;;;;21.97;12.83;;;18.00;49.00;;;;;;5069717;28;20436;-78
2021/07/02 06:12:17;;;;;;;27.30;12.65;;;18.00;47.90;;;;;;5065228;28;20544;-78
2021/07/02 06:14:43;;;;;;;22.63;12.70;;;18.00;46.70;;;;;;5060998;28;20405;-78
2021/07/02 06:17:08;;;;;;;26.50;11.80;;;18.00;45.70;;;;;;5061386;28;20431;-79
2021/07/02 06:19:34;;;;;;;20.55;11.68;;;18.10;44.40;;;;;;5064836;28;20470;-78
2021/07/02 06:21:59;;;;;;;22.52;12.15;;;18.20;43.60;;;;;;5060977;28;20401;-79
2021/07/02 06:24:25;;;;;;;17.43;11.50;;;18.20;41.00;;;;;;5062516;28;20381;-77
2021/07/02 06:26:51;;;;;;;19.77;11.60;;;18.30;41.40;;;;;;5062311;28;20878;-79
2021/07/02 06:29:16;;;;;;;24.55;11.32;;;18.40;41.60;;;;;;5063677;28;20419;-78
2021/07/02 06:31:42;;;;;;;17.27;11.67;;;18.40;40.00;;;;;;5064476;28;20389;-78
2021/07/02 06:34:07;;;;;;;16.77;11.10;;;18.40;40.10;;;;;;5071028;28;20487;-79
2021/07/02 06:36:33;;;;;;;19.15;11.10;;;18.50;40.90;;;;;;5069731;28;20377;-79
2021/07/02 06:38:59;;;;;;;21.40;11.40;;;18.60;40.30;;;;;;5072125;28;20389;-77
2021/07/02 06:41:24;;;;;;;23.00;11.90;;;18.70;40.40;;;;;;5069558;28;20389;-78
2021/07/02 06:43:50;;;;;;;21.42;11.30;;;18.70;40.10;;;;;;5071176;28;20419;-78
2021/07/02 06:46:15;;;;;;;18.67;10.10;;;18.80;39.60;;;;;;5069849;28;20452;-78
2021/07/02 06:48:41;;;;;;;17.07;10.30;;;18.90;39.60;;;;;;5068950;28;20385;-76
2021/07/02 06:51:07;;;;;;;18.52;10.70;;;19.10;38.80;;;;;;5066929;28;20390;-77
2021/07/02 06:53:32;;;;;;;19.30;10.25;;;19.30;37.80;;;;;;5065417;28;20409;-80
2021/07/02 06:55:58;;;;;;;22.60;11.20;;;19.40;36.90;;;;;;5066308;28;20386;-78
2021/07/02 06:58:24;;;;;;;20.27;10.27;;;19.50;36.20;;;;;;5073359;28;20378;-78
2021/07/02 07:00:49;;;;;;;17.20;10.13;;;19.50;35.60;;;;;;5069811;28;20397;-77
2021/07/02 07:03:15;;;;;;;16.63;9.97;;;19.60;36.50;;;;;;5064356;28;20386;-78
2021/07/02 07:05:41;;;;;;;21.20;10.27;;;19.70;34.10;;;;;;5063250;28;20405;-79
2021/07/02 07:08:08;;;;;;;20.35;10.35;;;19.80;33.70;;;;;;5064290;28;20389;-79
2021/07/02 07:10:38;;;;;;;19.40;10.60;;;20.00;33.00;;;;;;5059635;28;20396;-78
2021/07/02 07:13:05;;;;;;;16.23;9.83;;;20.10;30.50;;;;;;5067902;28;20373;-77
2021/07/02 07:15:31;;;;;;;20.33;10.00;;;20.10;29.90;;;;;;5070219;28;20389;-76
2021/07/02 07:17:57;;;;;;;14.50;9.30;;;20.10;29.50;;;;;;5073917;28;20389;-77
2021/07/02 07:20:23;;;;;;;19.20;9.57;;;20.20;29.50;;;;;;5071785;28;20386;-77
2021/07/02 07:22:48;;;;;;;15.73;9.17;;;20.20;29.30;;;;;;5067957;28;20396;-77
2021/07/02 07:25:15;;;;;;;16.65;9.57;;;20.20;29.60;;;;;;5074071;28;20396;-78
2021/07/02 07:27:44;;;;;;;19.75;9.93;;;20.10;29.40;;;;;;5058814;28;20402;-79
2021/07/02 07:30:10;;;;;;;15.82;9.65;;;20.00;29.50;;;;;;5058881;28;20810;-79
2021/07/02 07:32:38;;;;;;;11.32;8.57;;;19.70;30.60;;;;;;5064213;28;20389;-77
2021/07/02 07:35:15;;;;;;;19.10;10.50;;;19.50;31.80;;;;;;5070145;28;20657;-76
2021/07/02 07:37:40;;;;;;;19.80;9.88;;;19.30;31.50;;;;;;5075340;28;20389;-77
2021/07/02 07:40:07;;;;;;;17.27;9.30;;;19.10;32.50;;;;;;5068299;28;20393;-77
2021/07/02 07:42:32;;;;;;;17.45;8.57;;;19.00;33.20;;;;;;5073040;28;20404;-78
2021/07/02 07:44:58;;;;;;;12.77;8.10;;;18.90;32.90;;;;;;5068541;28;20389;-78
2021/07/02 07:47:23;;;;;;;14.17;8.87;;;18.80;33.30;;;;;;5059184;28;20484;-79
2021/07/02 07:49:49;;;;;;;19.67;9.20;;;18.80;33.20;;;;;;5057955;28;20393;-78
2021/07/02 07:55:05;;;;;;;6.80;4.00;;;18.90;29.30;;;;;;5007206;28;20755;-77
2021/07/02 07:57:30;;;;;;;5.17;3.50;;;19.00;27.50;;;;;;5055602;28;20887;-79
2021/07/02 07:59:56;;;;;;;4.70;3.27;;;19.10;24.50;;;;;;5054784;28;20429;-79
2021/07/02 08:02:21;;;;;;;6.40;3.70;;;19.10;23.80;;;;;;5057599;28;20389;-79
2021/07/02 08:04:47;;;;;;;6.70;3.90;;;19.10;26.00;;;;;;5054577;28;20406;-79
2021/07/02 08:07:12;;;;;;;5.70;3.70;;;19.00;26.80;;;;;;5054369;28;20385;-78
2021/07/02 08:09:38;;;;;;;7.32;3.92;;;18.90;27.20;;;;;;5055195;28;20382;-79
2021/07/02 08:12:04;;;;;;;10.17;4.10;;;18.90;26.90;;;;;;5055689;28;20866;-78
2021/07/02 08:14:30;;;;;;;9.32;4.60;;;18.90;26.70;;;;;;5054093;28;20408;-77
2021/07/02 08:16:55;;;;;;;10.03;4.73;;;19.10;27.80;;;;;;5054740;28;20381;-79
2021/07/02 08:19:21;;;;;;;7.03;4.90;;;19.30;28.20;;;;;;5059894;28;20461;-78
2021/07/02 08:21:46;;;;;;;7.38;4.90;;;19.70;26.60;;;;;;5072853;28;20389;-78
2021/07/02 08:24:12;;;;;;;10.43;4.47;;;20.20;24.30;;;;;;5055660;28;20477;-79
2021/07/02 08:26:38;;;;;;;7.20;4.80;;;20.40;23.50;;;;;;5058845;28;20381;-79
2021/07/02 08:29:23;;;;;;;9.10;5.55;;;20.60;23.60;;;;;;5055537;28;20880;-76
2021/07/02 08:31:49;;;;;;;7.80;5.95;;;20.60;24.90;;;;;;5053459;28;20476;-79
2021/07/02 08:34:15;;;;;;;10.85;4.60;;;20.90;24.50;;;;;;5056191;28;20880;-79
2021/07/02 08:36:40;;;;;;;8.23;5.50;;;21.00;23.00;;;;;;5055494;28;20472;-78
2021/07/02 08:39:06;;;;;;;11.00;5.35;;;21.30;22.20;;;;;;5055238;28;20415;-79
2021/07/02 08:41:32;;;;;;;7.13;5.15;;;21.30;22.80;;;;;;5056659;28;20460;-79
2021/07/02 08:43:58;;;;;;;6.95;4.80;;;21.20;21.90;;;;;;5055992;28;20385;-79
2021/07/02 08:46:24;;;;;;;8.65;4.82;;;21.10;22.50;;;;;;5055906;28;20397;-79
2021/07/02 08:48:53;;;;;;;10.07;4.60;;;21.10;22.50;;;;;;5055806;28;20382;-79
2021/07/02 08:51:19;;;;;;;6.53;4.43;;;21.20;21.50;;;;;;5055686;28;20405;-79
2021/07/02 08:53:45;;;;;;;7.88;3.78;;;21.50;19.50;;;;;;5055074;28;20408;-79
2021/07/02 08:56:11;;;;;;;6.50;4.50;;;21.40;19.60;;;;;;5054457;28;20381;-77
2021/07/02 08:58:37;;;;;;;8.13;4.75;;;21.60;19.70;;;;;;5056253;28;20413;-79
2021/07/02 09:01:07;;;;;;;11.48;4.70;;;21.70;19.00;;;;;;5056509;28;20392;-78
2021/07/02 09:03:36;;;;;;;8.60;5.00;;;21.90;18.70;;;;;;5055387;28;20920;-77
2021/07/02 09:06:12;;;;;;;7.97;4.90;;;22.00;18.00;;;;;;5055981;28;20387;-80
2021/07/02 09:08:38;;;;;;;6.45;4.90;;;21.80;18.50;;;;;;5054298;28;20428;-78
2021/07/02 09:11:26;;;;;;;8.25;4.88;;;21.70;18.50;;;;;;5055045;28;20395;-77
2021/07/02 09:13:52;;;;;;;7.25;4.65;;;21.70;19.00;;;;;;5058869;28;20419;-78
2021/07/02 09:16:22;;;;;;;9.70;6.18;;;21.90;19.00;;;;;;5066241;28;20409;-78
2021/07/02 09:18:47;;;;;;;13.20;5.70;;;22.00;18.50;;;;;;5054619;28;20373;-78
2021/07/02 09:21:30;;;;;;;10.03;5.60;;;22.20;18.40;;;;;;5055063;28;20472;-78
2021/07/02 09:23:58;;;;;;;9.95;4.53;;;22.40;17.90;;;;;;5056403;28;20477;-79
2021/07/02 09:26:39;;;;;;;10.07;5.20;;;22.60;17.00;;;;;;5068505;28;20385;-77
2021/07/02 09:29:25;;;;;;;10.38;5.70;;;22.70;16.90;;;;;;5070191;23;20940;-71
2021/07/02 09:31:58;;;;;;;9.55;5.80;;;23.00;17.20;;;;;;5049977;28;20397;-72
2021/07/02 09:34:50;;;;;;;8.15;5.50;;;23.40;16.60;;;;;;5049783;28;20440;-71
2021/07/02 09:37:39;;;;;;;9.65;5.93;;;23.60;15.10;;;;;;5050594;28;20421;-71
2021/07/02 09:40:22;;;;;;;10.68;5.32;;;23.00;16.20;;;;;;5030321;28;20876;-71
2021/07/02 09:43:08;;;;;;;10.27;5.50;;;22.70;16.60;;;;;;5031046;28;20445;-71
2021/07/02 09:45:42;;;;;;;10.02;6.07;;;22.50;17.00;;;;;;5034197;28;20391;-72
2021/07/02 09:48:09;;;;;;;11.07;6.80;;;22.40;17.80;;;;;;5034136;28;20395;-72
2021/07/02 09:50:46;;;;;;;12.20;6.45;;;22.40;17.90;;;;;;5034183;28;20473;-72
2021/07/02 09:53:15;;;;;;;14.57;6.70;;;22.50;18.60;;;;;;5033617;28;20397;-72
2021/07/02 09:55:42;;;;;;;14.65;8.35;;;22.50;19.20;;;;;;5034347;28;20387;-72
2021/07/02 09:58:16;;;;;;;18.38;7.78;;;22.50;19.50;;;;;;5033785;28;20390;-70
2021/07/02 10:00:47;;;;;;;12.30;7.43;;;22.40;19.00;;;;;;5033531;28;20859;-72
2021/07/02 10:03:15;;;;;;;15.23;8.32;;;22.60;19.10;;;;;;5033807;28;20387;-71
2021/07/02 10:05:45;;;;;;;14.32;7.45;;;23.00;19.30;;;;;;5033922;28;20383;-72
2021/07/02 10:08:10;;;;;;;15.52;8.02;;;23.00;18.30;;;;;;5033256;28;20755;-72
2021/07/02 10:10:36;;;;;;;13.60;7.00;;;22.90;18.50;;;;;;5034124;28;20382;-71
2021/07/02 10:13:03;;;;;;;14.32;7.25;;;22.80;18.50;;;;;;5033430;28;20394;-71
2021/07/02 10:15:29;;;;;;;13.90;6.95;;;22.90;17.90;;;;;;5048944;28;20383;-71
2021/07/02 10:17:57;;;;;;;13.35;7.10;;;22.70;18.20;;;;;;5033540;28;20375;-71
2021/07/02 10:20:25;;;;;;;9.25;6.22;;;22.60;18.40;;;;;;5033809;28;20422;-72
2021/07/02 10:22:53;;;;;;;11.77;6.07;;;22.80;18.80;;;;;;5048700;28;20906;-72
2021/07/02 10:25:19;;;;;;;8.73;6.35;;;23.00;17.90;;;;;;5033431;28;20392;-71
2021/07/02 10:27:46;;;;;;;11.43;6.80;;;23.20;18.00;;;;;;5033309;28;20385;-72
2021/07/02 10:30:12;;;;;;;10.70;6.57;;;23.30;17.60;;;;;;5033184;28;20755;-73
2021/07/02 10:32:38;;;;;;;10.70;6.40;;;23.20;17.60;;;;;;5033466;28;20883;-71
2021/07/02 10:35:06;;;;;;;11.60;6.20;;;23.30;17.00;;;;;;5033043;28;20402;-71
2021/07/02 10:37:33;;;;;;;11.15;6.85;;;23.50;16.50;;;;;;5033346;28;20411;-72
2021/07/02 10:40:00;;;;;;;14.93;6.68;;;23.80;16.20;;;;;;5032782;28;20399;-72
2021/07/02 10:42:28;;;;;;;9.05;6.13;;;24.10;15.50;;;;;;5033311;28;20716;-72
2021/07/02 10:44:54;;;;;;;11.70;6.20;;;23.90;15.00;;;;;;5032656;28;20387;-71
2021/07/02 10:47:21;;;;;;;12.07;6.70;;;23.90;15.00;;;;;;5032829;28;20387;-71
2021/07/02 10:49:47;;;;;;;12.73;6.50;;;23.70;15.20;;;;;;5048059;28;20403;-72
2021/07/02 10:52:25;;;;;;;11.10;6.63;;;23.40;15.90;;;;;;5033014;28;20441;-72
2021/07/02 10:54:56;;;;;;;10.17;6.40;;;23.30;16.40;;;;;;5032322;28;20403;-72
2021/07/02 10:57:24;;;;;;;10.73;6.82;;;23.50;16.50;;;;;;5032969;28;20891;-72
2021/07/02 10:59:49;;;;;;;11.35;6.70;;;23.70;15.50;;;;;;5032895;28;20383;-73
2021/07/02 11:02:17;;;;;;;9.10;7.10;;;23.70;16.30;;;;;;5032732;28;20406;-72
2021/07/02 11:04:44;;;;;;;15.95;7.72;;;23.90;15.40;;;;;;5032485;28;20452;-71
2021/07/02 11:07:19;;;;;;;14.32;7.85;;;24.20;14.80;;;;;;5032510;28;20383;-71
2021/07/02 11:09:57;;;;;;;11.20;7.95;;;24.50;15.60;;;;;;5032144;28;20879;-71
2021/07/02 11:12:27;;;;;;;13.70;8.50;;;25.00;14.00;;;;;;5032460;28;20847;-71
2021/07/02 11:15:01;;;;;;;11.80;8.20;;;25.40;13.30;;;;;;5032266;28;20796;-72
2021/07/02 11:17:38;;;;;;;17.20;8.70;;;25.50;12.90;;;;;;5032466;28;20417;-71
2021/07/02 11:20:10;;;;;;;14.18;9.13;;;25.40;12.20;;;;;;5032344;28;20441;-72
2021/07/02 11:22:35;;;;;;;16.05;9.70;;;25.00;13.40;;;;;;5032370;28;20383;-73
2021/07/02 11:25:07;;;;;;;14.98;9.07;;;24.60;14.30;;;;;;5032114;28;20979;-72
2021/07/02 11:27:45;;;;;;;14.47;9.80;;;24.80;14.10;;;;;;5031895;28;20810;-73
2021/07/02 11:30:20;;;;;;;15.45;9.93;;;24.90;15.30;;;;;;5032242;28;20895;-71
2021/07/02 11:32:47;;;;;;;14.60;10.73;;;24.50;14.60;;;;;;5032132;28;20391;-72
2021/07/02 11:35:39;;;;;;;18.00;10.52;;;23.60;16.00;;;;;;5032092;28;20454;-72
2021/07/02 11:38:11;;;;;;;17.05;11.10;;;23.30;17.60;;;;;;5032086;28;20449;-71
2021/07/02 11:40:47;;;;;;;18.83;12.00;;;23.10;18.10;;;;;;5032315;28;20383;-72
2021/07/02 11:43:14;;;;;;;21.10;12.30;;;22.90;18.20;;;;;;5031847;28;20429;-71
2021/07/02 11:45:46;;;;;;;18.05;11.43;;;22.90;19.10;;;;;;5031865;28;20788;-72
2021/07/02 11:48:23;;;;;;;20.60;11.82;;;23.20;18.20;;;;;;5031381;28;20375;-72
2021/07/02 11:50:56;;;;;;;20.60;13.25;;;23.50;18.10;;;;;;5031947;28;20375;-71
2021/07/02 11:53:37;;;;;;;23.90;12.98;;;23.30;17.90;;;;;;5031605;28;20415;-71
2021/07/02 11:56:15;;;;;;;25.05;13.27;;;23.40;17.70;;;;;;5031973;28;20375;-71
2021/07/02 11:58:51;;;;;;;22.27;12.88;;;23.60;18.70;;;;;;5030588;28;20732;-71
2021/07/02 12:01:20;;;;;;;24.10;12.70;;;23.90;17.90;;;;;;5031759;28;20454;-72
2021/07/02 12:03:54;;;;;;;21.40;13.45;;;24.30;16.20;;;;;;5031439;28;20409;-72
2021/07/02 12:06:27;;;;;;;19.63;12.23;;;24.40;15.60;;;;;;5030381;28;20383;-73
2021/07/02 12:09:08;;;;;;;19.27;12.02;;;24.20;16.90;;;;;;5030865;28;20375;-72
2021/07/02 12:11:39;;;;;;;22.25;13.25;;;23.80;16.90;;;;;;5031341;28;20394;-72
2021/07/02 12:14:07;;;;;;;23.77;13.37;;;23.60;18.70;;;;;;5031176;28;20415;-71
2021/07/02 12:16:42;;;;;;;22.37;13.43;;;23.20;18.80;;;;;;5031268;28;20841;-71
2021/07/02 12:19:12;;;;;;;21.55;13.40;;;22.80;21.00;;;;;;5031151;28;20868;-72
2021/07/02 12:21:38;;;;;;;20.38;13.25;;;22.90;22.00;;;;;;5031323;28;20458;-72
2021/07/02 12:24:08;;;;;;;21.42;11.95;;;23.00;19.90;;;;;;5031123;28;20813;-71
2021/07/02 12:26:35;;;;;;;16.00;10.93;;;23.10;19.50;;;;;;5031619;28;20445;-71
2021/07/02 12:29:10;;;;;;;24.42;14.23;;;23.30;20.50;;;;;;5031110;28;20486;-73
2021/07/02 12:32:03;;;;;;;23.88;12.70;;;22.70;21.10;;;;;;5030951;28;20394;-71
2021/07/02 12:34:47;;;;;;;18.42;12.43;;;22.60;21.60;;;;;;5028511;28;20513;-71
2021/07/02 12:37:19;;;;;;;26.77;14.55;;;23.30;21.40;;;;;;5031363;28;20387;-73